Time;durP1;ratioP1;P1;durP2;ratioP2;P2;SDS_P1;SDS_P2;PMS_P1;PMS_P2;Temp;Humidity;BMP_temperature;BMP_pressure;BME280_temperature;BME280_humidity;BME280_pressure;Samples;Min_cycle;Max_cycle;Signal;HPM_P1;HPM_P2
2022/07/09 00:00:11;;;;;;;11.27;7.27;;;16.60;85.90;;;;;;5051127;28;20382;-74
2022/07/09 00:02:37;;;;;;;12.80;7.43;;;16.60;86.10;;;;;;5050841;28;20393;-73
2022/07/09 00:05:03;;;;;;;11.80;7.50;;;16.60;85.40;;;;;;5050909;28;20765;-73
2022/07/09 00:07:29;;;;;;;11.35;7.40;;;16.60;85.10;;;;;;5050946;28;20385;-74
2022/07/09 00:09:54;;;;;;;10.32;7.90;;;16.60;86.50;;;;;;5050983;28;20818;-74
2022/07/09 00:12:20;;;;;;;12.30;8.33;;;16.60;85.80;;;;;;5050757;28;20377;-72
2022/07/09 00:14:46;;;;;;;14.10;8.80;;;16.50;86.00;;;;;;5050606;28;20377;-73
2022/07/09 00:17:12;;;;;;;14.93;9.45;;;16.40;87.40;;;;;;5051195;28;20382;-74
2022/07/09 00:19:38;;;;;;;14.63;9.15;;;16.30;88.90;;;;;;5050762;28;20759;-74
2022/07/09 00:22:05;;;;;;;18.40;10.23;;;16.30;89.90;;;;;;5049328;28;20879;-73
2022/07/09 00:24:31;;;;;;;20.30;13.00;;;16.20;90.70;;;;;;5051083;28;20385;-74
2022/07/09 00:26:56;;;;;;;17.30;12.30;;;16.20;91.90;;;;;;5051474;28;20392;-74
2022/07/09 00:29:22;;;;;;;17.85;10.55;;;16.20;92.20;;;;;;5051078;28;20727;-75
2022/07/09 00:31:47;;;;;;;17.07;10.43;;;16.20;92.50;;;;;;5050820;28;20419;-73
2022/07/09 00:34:13;;;;;;;16.53;10.03;;;16.20;92.00;;;;;;5051483;28;20874;-74
2022/07/09 00:36:38;;;;;;;14.68;9.27;;;16.10;92.20;;;;;;5050448;28;20384;-73
2022/07/09 00:39:04;;;;;;;14.30;9.83;;;16.10;93.10;;;;;;5050721;28;20409;-74
2022/07/09 00:41:30;;;;;;;16.60;10.60;;;16.10;93.70;;;;;;5048854;28;20405;-74
2022/07/09 00:43:55;;;;;;;16.37;10.77;;;16.10;93.80;;;;;;5050231;28;20476;-72
2022/07/09 00:46:21;;;;;;;20.40;11.73;;;16.10;93.70;;;;;;5050169;28;20482;-74
2022/07/09 00:48:47;;;;;;;21.75;12.15;;;16.10;93.80;;;;;;5050430;28;20409;-74
2022/07/09 00:51:14;;;;;;;17.52;11.60;;;16.20;93.80;;;;;;5050285;28;20474;-73
2022/07/09 00:53:40;;;;;;;22.00;12.95;;;16.10;92.40;;;;;;5050263;28;20385;-73
2022/07/09 00:56:07;;;;;;;22.65;14.25;;;16.10;94.40;;;;;;5050406;28;20381;-73
2022/07/09 00:58:34;;;;;;;24.65;14.90;;;16.20;92.20;;;;;;5050257;28;20800;-73
2022/07/09 01:01:01;;;;;;;20.30;15.30;;;16.20;92.40;;;;;;5050202;28;20419;-73
2022/07/09 01:03:26;;;;;;;26.65;15.38;;;16.00;93.70;;;;;;5048751;28;20901;-73
2022/07/09 01:05:52;;;;;;;25.30;15.27;;;16.20;91.70;;;;;;5050454;28;20503;-72
2022/07/09 01:08:17;;;;;;;22.75;15.27;;;16.20;92.40;;;;;;5050022;28;20389;-73
2022/07/09 01:10:44;;;;;;;24.27;16.17;;;16.10;93.20;;;;;;5050297;28;20500;-72
2022/07/09 01:13:11;;;;;;;24.90;16.17;;;16.00;94.70;;;;;;5053606;28;20381;-72
2022/07/09 01:15:37;;;;;;;27.98;14.13;;;15.90;95.90;;;;;;5053725;28;20433;-72
2022/07/09 01:18:03;;;;;;;22.73;15.07;;;15.90;97.10;;;;;;5053965;28;20382;-73
2022/07/09 01:20:29;;;;;;;21.30;13.98;;;15.90;97.70;;;;;;5054003;28;20392;-73
2022/07/09 01:22:55;;;;;;;23.17;13.70;;;15.90;97.40;;;;;;5053574;28;20389;-73
2022/07/09 01:25:31;;;;;;;22.23;13.18;;;15.90;97.20;;;;;;5054090;28;20388;-73
2022/07/09 01:27:56;;;;;;;20.25;12.85;;;15.80;98.20;;;;;;5055290;28;20727;-72
2022/07/09 01:30:27;;;;;;;17.98;12.20;;;15.80;98.70;;;;;;5052653;28;20412;-73
2022/07/09 01:32:53;;;;;;;17.33;11.00;;;16.00;96.70;;;;;;5053685;28;20730;-73
2022/07/09 01:35:20;;;;;;;18.73;11.07;;;15.90;96.50;;;;;;5053590;28;20389;-73
2022/07/09 01:37:45;;;;;;;17.83;10.63;;;15.90;97.80;;;;;;5053365;28;20442;-72
2022/07/09 01:40:12;;;;;;;17.52;10.45;;;15.90;99.10;;;;;;5053556;28;20385;-72
2022/07/09 01:42:37;;;;;;;16.10;10.07;;;15.90;99.10;;;;;;5053560;28;20784;-73
2022/07/09 01:45:03;;;;;;;13.03;9.53;;;15.90;99.80;;;;;;5053297;28;20498;-72
2022/07/09 01:47:29;;;;;;;13.63;9.02;;;15.90;99.90;;;;;;5053910;28;20448;-73
2022/07/09 01:49:55;;;;;;;15.00;8.83;;;16.10;98.60;;;;;;5051898;28;21115;-72
2022/07/09 01:52:20;;;;;;;12.40;8.70;;;16.10;97.70;;;;;;5052754;28;20750;-72
2022/07/09 01:54:46;;;;;;;17.90;8.60;;;16.10;97.30;;;;;;5052885;28;20382;-72
2022/07/09 01:57:11;;;;;;;13.05;8.27;;;16.20;95.60;;;;;;5053060;28;20381;-72
2022/07/09 01:59:37;;;;;;;13.07;8.80;;;16.20;96.40;;;;;;5052895;28;20746;-72
2022/07/09 02:02:03;;;;;;;12.70;7.60;;;16.30;94.20;;;;;;5052757;28;20455;-72
2022/07/09 02:04:28;;;;;;;15.80;8.60;;;16.30;93.70;;;;;;5053071;28;20803;-74
2022/07/09 02:06:54;;;;;;;9.20;7.63;;;16.40;93.40;;;;;;5052842;28;20469;-72
2022/07/09 02:09:20;;;;;;;14.88;9.02;;;16.50;92.80;;;;;;5052899;28;20443;-72
2022/07/09 02:11:47;;;;;;;14.17;8.97;;;16.50;91.60;;;;;;5052583;28;20612;-73
2022/07/09 02:14:12;;;;;;;12.32;8.57;;;16.60;90.40;;;;;;5052723;28;20378;-74
2022/07/09 02:16:38;;;;;;;16.47;8.80;;;16.60;89.90;;;;;;5052788;28;20380;-72
2022/07/09 02:19:03;;;;;;;9.93;7.60;;;16.80;85.10;;;;;;5052692;28;20898;-72
2022/07/09 02:21:29;;;;;;;14.48;10.50;;;16.70;84.20;;;;;;5051106;28;20893;-72
2022/07/09 02:23:58;;;;;;;14.03;9.67;;;16.60;86.90;;;;;;5051289;28;20878;-72
2022/07/09 02:26:25;;;;;;;14.68;10.20;;;16.50;88.50;;;;;;5053494;28;20386;-72
2022/07/09 02:28:51;;;;;;;14.88;10.45;;;16.40;90.40;;;;;;5052514;28;20416;-72
2022/07/09 02:31:17;;;;;;;14.63;9.60;;;16.40;91.40;;;;;;5052237;28;20778;-72
2022/07/09 02:33:43;;;;;;;16.52;12.30;;;16.40;92.10;;;;;;5052766;28;20438;-72
2022/07/09 02:36:08;;;;;;;19.33;12.48;;;16.50;90.40;;;;;;5052486;28;20746;-73
2022/07/09 02:38:34;;;;;;;15.47;11.90;;;16.80;86.40;;;;;;5052655;28;20753;-74
2022/07/09 02:41:01;;;;;;;16.80;11.23;;;16.70;84.90;;;;;;5052360;28;20746;-73
2022/07/09 02:43:27;;;;;;;13.98;10.32;;;16.70;85.70;;;;;;5052277;28;20385;-73
2022/07/09 02:45:55;;;;;;;25.50;15.38;;;16.60;87.20;;;;;;5052430;28;20468;-74
2022/07/09 02:48:21;;;;;;;19.05;13.18;;;16.50;88.60;;;;;;5052694;28;20381;-74
2022/07/09 02:50:46;;;;;;;19.95;14.10;;;16.40;90.20;;;;;;5052276;28;20769;-73
2022/07/09 02:53:12;;;;;;;25.60;14.33;;;16.60;88.80;;;;;;5051896;28;20468;-73
2022/07/09 02:55:37;;;;;;;19.40;13.60;;;16.70;87.00;;;;;;5052273;28;20377;-73
2022/07/09 02:58:03;;;;;;;18.70;13.98;;;16.60;86.90;;;;;;5050617;28;20385;-73
2022/07/09 03:00:29;;;;;;;20.97;13.03;;;16.40;89.00;;;;;;5051924;28;20382;-73
2022/07/09 03:02:54;;;;;;;20.27;12.70;;;16.30;91.60;;;;;;5051526;28;20751;-73
2022/07/09 03:05:20;;;;;;;15.60;13.00;;;16.10;92.70;;;;;;5052046;28;20420;-71
2022/07/09 03:07:45;;;;;;;20.55;13.82;;;16.10;94.60;;;;;;5050425;28;20393;-75
2022/07/09 03:10:12;;;;;;;26.38;16.67;;;16.20;93.60;;;;;;5052024;28;20412;-74
2022/07/09 03:12:37;;;;;;;23.17;16.35;;;16.20;93.60;;;;;;5051582;28;20390;-74
2022/07/09 03:15:03;;;;;;;22.60;16.50;;;16.10;95.40;;;;;;5051652;28;20384;-73
2022/07/09 03:17:29;;;;;;;24.77;17.70;;;16.30;94.30;;;;;;5051527;28;20424;-72
2022/07/09 03:19:55;;;;;;;29.30;17.45;;;16.30;92.20;;;;;;5050366;28;20770;-72
2022/07/09 03:22:20;;;;;;;31.17;19.85;;;16.40;92.10;;;;;;5050151;28;20742;-73
2022/07/09 03:24:46;;;;;;;28.10;19.40;;;16.60;89.80;;;;;;5051410;28;20461;-73
2022/07/09 03:27:11;;;;;;;29.27;20.00;;;16.80;86.40;;;;;;5051821;28;20490;-73
2022/07/09 03:29:37;;;;;;;30.97;20.43;;;16.80;85.50;;;;;;5051314;28;20386;-73
2022/07/09 03:32:03;;;;;;;29.23;21.30;;;17.00;83.90;;;;;;5051186;28;20381;-72
2022/07/09 03:34:29;;;;;;;28.80;20.30;;;16.90;83.50;;;;;;5050843;28;20393;-74
2022/07/09 03:36:55;;;;;;;29.43;20.27;;;16.80;83.40;;;;;;5051360;28;20388;-72
2022/07/09 03:39:21;;;;;;;29.73;20.10;;;16.60;87.50;;;;;;5052750;28;20813;-73
2022/07/09 03:41:46;;;;;;;34.20;20.67;;;16.40;91.70;;;;;;5050938;28;20401;-73
2022/07/09 03:44:12;;;;;;;32.33;20.70;;;16.30;94.60;;;;;;5050858;28;20381;-73
2022/07/09 03:46:37;;;;;;;36.08;21.90;;;16.60;90.90;;;;;;5050937;28;20468;-73
2022/07/09 03:49:03;;;;;;;31.30;20.73;;;16.70;89.10;;;;;;5050961;28;20720;-75
2022/07/09 03:51:28;;;;;;;28.33;20.40;;;16.90;85.50;;;;;;5050661;28;20408;-73
2022/07/09 03:53:54;;;;;;;30.10;21.40;;;17.00;83.60;;;;;;5049532;28;20472;-72
2022/07/09 03:56:20;;;;;;;27.90;20.43;;;17.10;83.50;;;;;;5051091;28;20512;-74
2022/07/09 03:58:46;;;;;;;32.23;21.40;;;17.10;83.70;;;;;;5050733;28;20377;-73
2022/07/09 04:01:11;;;;;;;25.75;19.45;;;17.20;82.30;;;;;;5050866;28;20870;-73
2022/07/09 04:03:37;;;;;;;32.27;20.77;;;17.00;83.90;;;;;;5050656;28;20397;-73
2022/07/09 04:06:03;;;;;;;27.50;20.92;;;16.90;86.40;;;;;;5050733;28;20385;-72
2022/07/09 04:08:29;;;;;;;30.33;21.42;;;16.90;85.80;;;;;;5051114;28;20381;-73
2022/07/09 04:10:54;;;;;;;31.38;21.10;;;17.00;85.50;;;;;;5050659;28;20413;-73
2022/07/09 04:13:20;;;;;;;33.30;22.35;;;17.10;83.30;;;;;;5049628;28;20429;-73
2022/07/09 04:15:46;;;;;;;27.93;21.10;;;17.20;82.50;;;;;;5049852;28;20421;-73
2022/07/09 04:18:15;;;;;;;27.40;21.67;;;17.30;81.40;;;;;;5051110;28;20732;-74
2022/07/09 04:20:41;;;;;;;28.60;20.38;;;17.10;80.70;;;;;;5049189;28;20473;-72
2022/07/09 04:23:08;;;;;;;27.25;21.27;;;16.90;84.60;;;;;;5050301;28;20941;-72
2022/07/09 04:25:33;;;;;;;34.47;22.90;;;16.70;88.30;;;;;;5049043;28;20797;-73
2022/07/09 04:27:59;;;;;;;31.50;21.70;;;16.60;90.70;;;;;;5051229;28;20443;-72
2022/07/09 04:30:28;;;;;;;30.23;20.80;;;16.60;90.80;;;;;;5052428;28;20913;-73
2022/07/09 04:32:54;;;;;;;28.30;22.00;;;16.70;91.20;;;;;;5052272;28;20393;-73
2022/07/09 04:35:19;;;;;;;29.57;21.77;;;16.60;91.70;;;;;;5051035;28;20373;-71
2022/07/09 04:37:45;;;;;;;33.77;23.73;;;16.60;92.90;;;;;;5050913;28;20389;-72
2022/07/09 04:40:11;;;;;;;39.38;25.00;;;16.70;93.10;;;;;;5050434;28;20381;-73
2022/07/09 04:42:36;;;;;;;31.73;23.70;;;17.10;87.80;;;;;;5050302;28;20895;-72
2022/07/09 04:45:03;;;;;;;36.63;24.77;;;17.10;85.90;;;;;;5050523;28;20457;-73
2022/07/09 04:47:28;;;;;;;38.75;26.42;;;17.00;87.10;;;;;;5053707;28;20393;-73
2022/07/09 04:49:54;;;;;;;36.00;27.60;;;17.00;88.20;;;;;;5054181;28;20420;-73
2022/07/09 04:52:20;;;;;;;40.30;27.00;;;17.00;88.50;;;;;;5053906;28;20460;-72
2022/07/09 04:54:46;;;;;;;42.03;27.85;;;17.10;88.70;;;;;;5053767;28;20447;-72
2022/07/09 04:57:12;;;;;;;44.35;29.40;;;17.20;87.20;;;;;;5053925;28;20389;-72
2022/07/09 04:59:37;;;;;;;37.50;26.90;;;17.70;82.80;;;;;;5054062;28;20427;-72
2022/07/09 05:02:03;;;;;;;37.10;26.40;;;18.00;77.10;;;;;;5053903;28;20385;-72
2022/07/09 05:04:30;;;;;;;32.53;24.70;;;18.20;72.40;;;;;;5053784;28;20443;-73
2022/07/09 05:06:55;;;;;;;37.40;25.60;;;18.30;71.80;;;;;;5053715;28;20396;-74
2022/07/09 05:09:21;;;;;;;37.60;24.20;;;18.20;74.20;;;;;;5054109;28;20747;-73
2022/07/09 05:11:47;;;;;;;33.13;24.70;;;18.10;75.80;;;;;;5053709;28;20417;-72
2022/07/09 05:14:13;;;;;;;38.88;25.10;;;18.00;78.30;;;;;;5054029;28;20442;-74
2022/07/09 05:16:44;;;;;;;40.72;24.60;;;18.00;78.60;;;;;;5052519;28;20381;-73
2022/07/09 05:19:10;;;;;;;39.05;26.30;;;18.00;78.20;;;;;;5053822;28;20852;-72
2022/07/09 05:21:36;;;;;;;37.10;28.10;;;18.00;79.00;;;;;;5053451;28;20392;-73
2022/07/09 05:24:02;;;;;;;43.63;28.55;;;18.00;79.80;;;;;;5053492;28;20389;-72
2022/07/09 05:26:29;;;;;;;38.85;28.55;;;18.00;79.50;;;;;;5053607;28;20457;-71
2022/07/09 05:28:55;;;;;;;40.95;28.40;;;18.10;78.80;;;;;;5053574;28;20394;-72
2022/07/09 05:31:20;;;;;;;41.97;30.13;;;18.00;78.80;;;;;;5053284;28;20416;-72
2022/07/09 05:33:47;;;;;;;40.83;29.30;;;18.00;79.00;;;;;;5053254;28;20933;-72
2022/07/09 05:36:13;;;;;;;40.40;28.15;;;18.00;80.00;;;;;;5053569;28;20397;-73
2022/07/09 05:38:38;;;;;;;42.57;29.07;;;17.90;80.20;;;;;;5053957;28;20385;-72
2022/07/09 05:41:04;;;;;;;44.53;30.27;;;17.90;80.70;;;;;;5053501;28;20381;-74
2022/07/09 05:43:29;;;;;;;48.47;29.50;;;18.00;80.60;;;;;;5053397;28;20388;-71
2022/07/09 05:45:55;;;;;;;44.72;28.73;;;18.10;77.00;;;;;;5053626;28;20405;-73
2022/07/09 05:48:21;;;;;;;44.65;28.90;;;18.10;78.50;;;;;;5052189;28;20953;-75
2022/07/09 05:50:46;;;;;;;45.07;28.53;;;18.10;77.70;;;;;;5053583;28;20413;-72
2022/07/09 05:53:12;;;;;;;42.67;28.03;;;18.20;77.20;;;;;;5053066;28;20381;-72
2022/07/09 05:55:37;;;;;;;44.35;28.67;;;18.40;76.10;;;;;;5053259;28;20468;-72
2022/07/09 05:58:03;;;;;;;50.07;29.63;;;18.60;73.30;;;;;;5053267;28;20830;-72
2022/07/09 06:00:28;;;;;;;43.73;28.77;;;18.70;71.00;;;;;;5051941;28;20980;-74
2022/07/09 06:02:54;;;;;;;42.88;28.48;;;18.90;69.00;;;;;;5052757;28;20897;-72
2022/07/09 06:05:20;;;;;;;44.75;29.67;;;19.20;69.50;;;;;;5053044;28;20389;-74
2022/07/09 06:07:46;;;;;;;44.63;26.80;;;19.50;61.70;;;;;;5053385;28;20433;-72
2022/07/09 06:10:14;;;;;;;46.95;27.00;;;19.60;59.60;;;;;;5038827;28;20418;-71
2022/07/09 06:12:40;;;;;;;45.38;27.70;;;19.70;58.90;;;;;;5032806;28;20889;-72
2022/07/09 06:15:06;;;;;;;43.03;26.52;;;19.60;59.60;;;;;;5032384;28;20775;-73
2022/07/09 06:17:32;;;;;;;40.35;27.15;;;19.60;59.80;;;;;;5032259;28;20384;-75
2022/07/09 06:19:57;;;;;;;38.20;26.53;;;19.70;59.00;;;;;;5031818;28;20387;-72
2022/07/09 06:22:23;;;;;;;42.58;26.75;;;19.80;58.40;;;;;;5024975;28;20917;-72
2022/07/09 06:24:48;;;;;;;40.03;25.50;;;19.90;56.80;;;;;;5014809;28;20457;-73
2022/07/09 06:27:14;;;;;;;39.60;25.17;;;19.90;55.50;;;;;;5031207;28;20386;-74
2022/07/09 06:29:39;;;;;;;43.80;26.40;;;20.00;55.60;;;;;;5030998;28;20395;-72
2022/07/09 06:32:06;;;;;;;37.40;24.17;;;20.20;53.70;;;;;;5029802;28;20398;-72
2022/07/09 06:34:31;;;;;;;36.78;25.15;;;20.20;53.30;;;;;;5031275;28;20683;-72
2022/07/09 06:36:57;;;;;;;40.43;24.30;;;20.30;52.70;;;;;;5030426;28;20403;-72
2022/07/09 06:42:07;;;;;;;41.20;25.35;;;20.10;52.10;;;;;;5030830;28;20414;-73
2022/07/09 06:44:34;;;;;;;45.15;26.40;;;20.00;53.50;;;;;;5030487;28;20405;-73
2022/07/09 06:46:59;;;;;;;39.42;25.92;;;19.90;53.90;;;;;;5030563;28;20398;-70
2022/07/09 06:49:25;;;;;;;44.40;24.00;;;19.90;54.80;;;;;;5030691;28;20383;-73
2022/07/09 06:51:50;;;;;;;38.88;21.92;;;20.00;50.80;;;;;;5031385;28;20415;-72
2022/07/09 06:54:16;;;;;;;34.63;19.47;;;20.00;48.90;;;;;;5029391;28;20501;-72
2022/07/09 06:56:41;;;;;;;41.27;22.67;;;19.90;45.10;;;;;;5031801;28;20417;-73
2022/07/09 06:59:07;;;;;;;43.65;20.63;;;20.00;48.00;;;;;;5032275;28;21242;-73
2022/07/09 07:01:33;;;;;;;44.13;20.83;;;20.10;46.80;;;;;;5031977;28;20395;-73
2022/07/09 07:03:58;;;;;;;42.37;21.40;;;20.30;44.40;;;;;;5032319;28;20503;-73
2022/07/09 07:06:24;;;;;;;40.05;20.70;;;20.30;43.90;;;;;;5032034;28;20414;-73
2022/07/09 07:08:49;;;;;;;41.07;20.03;;;20.20;43.80;;;;;;5031304;28;20399;-71
2022/07/09 07:11:15;;;;;;;39.30;21.03;;;20.30;44.20;;;;;;5030576;28;20442;-72
2022/07/09 07:13:41;;;;;;;41.60;20.10;;;20.30;43.90;;;;;;5030554;28;20874;-72
2022/07/09 07:16:07;;;;;;;31.70;17.10;;;20.50;42.90;;;;;;5030879;28;20726;-71
2022/07/09 07:18:33;;;;;;;31.48;16.20;;;20.50;41.20;;;;;;5031738;28;20399;-72
2022/07/09 07:20:58;;;;;;;31.23;17.13;;;20.50;40.30;;;;;;5031629;28;20442;-73
2022/07/09 07:23:24;;;;;;;32.77;17.43;;;20.60;41.60;;;;;;5032114;28;20865;-73
2022/07/09 07:25:49;;;;;;;32.23;16.00;;;20.70;40.50;;;;;;5032005;28;20453;-74
2022/07/09 07:28:15;;;;;;;29.95;14.77;;;20.50;40.40;;;;;;5033605;28;20395;-73
2022/07/09 07:30:41;;;;;;;36.25;16.50;;;20.40;41.10;;;;;;5032650;28;20411;-72
2022/07/09 07:33:07;;;;;;;33.03;16.02;;;20.40;41.30;;;;;;5029474;28;20394;-72
2022/07/09 07:35:33;;;;;;;30.55;15.45;;;20.60;40.80;;;;;;5029671;28;20924;-72
2022/07/09 07:38:01;;;;;;;33.83;15.93;;;20.90;40.00;;;;;;5027694;28;20379;-72
2022/07/09 07:40:26;;;;;;;30.95;15.35;;;21.20;38.40;;;;;;5029119;28;20477;-71
2022/07/09 07:42:52;;;;;;;32.87;17.07;;;21.40;37.20;;;;;;5029068;28;20936;-72
2022/07/09 07:45:18;;;;;;;31.13;14.50;;;21.40;36.40;;;;;;5029853;28;20477;-73
2022/07/09 07:47:43;;;;;;;23.20;12.32;;;21.40;36.20;;;;;;5030268;28;20456;-71
2022/07/09 07:50:09;;;;;;;21.27;13.35;;;21.60;35.10;;;;;;5029943;28;20411;-73
2022/07/09 07:52:35;;;;;;;20.97;11.70;;;21.80;34.40;;;;;;5029666;28;20410;-72
2022/07/09 07:55:00;;;;;;;18.00;12.07;;;21.80;35.00;;;;;;5029089;28;20403;-73
2022/07/09 07:57:26;;;;;;;25.67;12.68;;;21.60;36.10;;;;;;5030361;28;20418;-72
2022/07/09 07:59:51;;;;;;;20.20;11.57;;;21.50;36.10;;;;;;5029618;28;20471;-72
2022/07/09 08:02:17;;;;;;;21.53;13.43;;;21.70;35.40;;;;;;5029380;28;20461;-71
2022/07/09 08:04:42;;;;;;;19.63;12.02;;;21.80;35.60;;;;;;5064939;22;20431;-72
2022/07/09 08:07:08;;;;;;;18.73;12.13;;;21.80;36.40;;;;;;5069301;28;20392;-72
2022/07/09 08:09:34;;;;;;;19.80;12.35;;;21.60;36.80;;;;;;5060539;28;20385;-72
2022/07/09 08:12:00;;;;;;;16.50;10.30;;;21.80;36.10;;;;;;5048806;28;20416;-71
2022/07/09 08:14:26;;;;;;;17.20;10.90;;;21.80;34.20;;;;;;5031501;28;20746;-73
2022/07/09 08:16:51;;;;;;;15.70;9.27;;;22.00;34.20;;;;;;5048845;28;20385;-70
2022/07/09 08:19:17;;;;;;;16.60;8.70;;;22.40;33.40;;;;;;5049936;28;20390;-74
2022/07/09 08:21:43;;;;;;;13.30;8.50;;;22.90;31.00;;;;;;5047613;28;20388;-73
2022/07/09 08:24:08;;;;;;;13.77;7.90;;;23.30;27.70;;;;;;5055505;28;20406;-72
2022/07/09 08:26:34;;;;;;;13.53;7.50;;;23.50;27.90;;;;;;5061458;28;20393;-73
2022/07/09 08:28:59;;;;;;;9.85;6.57;;;23.80;25.10;;;;;;5048735;28;20975;-72
2022/07/09 08:31:25;;;;;;;10.37;6.20;;;24.20;24.10;;;;;;5050512;28;20893;-72
2022/07/09 08:33:51;;;;;;;9.95;6.00;;;24.50;22.60;;;;;;5058361;28;20489;-72
2022/07/09 08:36:17;;;;;;;9.18;6.00;;;24.80;22.00;;;;;;5065534;28;20407;-73
2022/07/09 08:38:43;;;;;;;9.18;5.80;;;24.80;21.00;;;;;;5051800;28;20412;-73
2022/07/09 08:41:09;;;;;;;9.60;4.40;;;24.50;21.50;;;;;;5051502;28;20454;-73
2022/07/09 08:43:38;;;;;;;7.30;3.90;;;24.40;20.00;;;;;;5051835;28;20945;-72
2022/07/09 08:46:05;;;;;;;8.20;4.32;;;24.40;20.70;;;;;;5050631;28;20397;-73
2022/07/09 08:48:36;;;;;;;6.18;4.50;;;24.30;21.10;;;;;;5051406;28;20742;-72
2022/07/09 08:51:02;;;;;;;7.85;3.92;;;24.10;21.40;;;;;;5032243;28;20405;-71
2022/07/09 08:53:29;;;;;;;5.13;3.70;;;24.00;21.60;;;;;;5051027;28;20412;-72
2022/07/09 08:55:55;;;;;;;5.53;3.40;;;24.00;22.40;;;;;;5050642;28;20478;-73
2022/07/09 08:58:21;;;;;;;4.00;3.22;;;24.00;21.50;;;;;;5051837;28;20869;-72
2022/07/09 09:00:48;;;;;;;5.28;3.40;;;23.80;21.50;;;;;;5052464;28;20477;-70
2022/07/09 09:03:14;;;;;;;3.00;2.70;;;23.70;22.50;;;;;;5052714;28;20389;-72
2022/07/09 09:05:39;;;;;;;3.80;2.80;;;23.50;22.60;;;;;;5052328;28;20829;-72
2022/07/09 09:08:24;;;;;;;6.17;2.80;;;23.30;23.00;;;;;;5056598;28;20446;-72
2022/07/09 09:10:50;;;;;;;3.95;2.30;;;23.20;24.10;;;;;;5047428;28;20412;-72
2022/07/09 09:13:16;;;;;;;8.23;2.30;;;23.30;23.70;;;;;;5059445;28;20758;-72
2022/07/09 09:15:42;;;;;;;3.77;1.70;;;23.30;24.50;;;;;;5052316;28;20385;-74
2022/07/09 09:18:08;;;;;;;1.50;1.40;;;23.40;22.10;;;;;;5053100;28;20751;-73
2022/07/09 09:20:34;;;;;;;1.60;1.50;;;23.60;20.90;;;;;;5064319;28;20404;-72
2022/07/09 09:23:02;;;;;;;1.10;1.00;;;24.00;19.90;;;;;;5069576;28;20422;-72
2022/07/09 09:25:28;;;;;;;2.45;1.20;;;24.30;18.50;;;;;;5063853;28;20456;-74
2022/07/09 09:27:55;;;;;;;2.40;1.10;;;24.40;17.50;;;;;;5057940;28;20392;-72
2022/07/09 09:30:22;;;;;;;1.48;1.20;;;24.50;17.60;;;;;;5071458;28;20411;-71
2022/07/09 09:32:59;;;;;;;2.45;1.00;;;24.70;17.30;;;;;;5071604;28;20880;-73
2022/07/09 09:35:27;;;;;;;2.45;1.40;;;25.10;16.50;;;;;;5067019;28;21100;-73
2022/07/09 09:37:53;;;;;;;1.20;1.10;;;25.40;16.20;;;;;;5054722;28;20377;-73
2022/07/09 09:40:19;;;;;;;2.08;1.48;;;25.70;15.50;;;;;;5053424;28;20462;-72
2022/07/09 09:42:46;;;;;;;1.90;1.47;;;25.90;15.50;;;;;;5053395;28;20484;-72
2022/07/09 09:45:16;;;;;;;1.77;1.40;;;26.20;14.70;;;;;;5066735;28;20407;-71
2022/07/09 09:47:50;;;;;;;2.13;1.70;;;26.30;15.00;;;;;;5058859;28;20420;-74
2022/07/09 09:50:24;;;;;;;1.90;1.70;;;26.30;14.50;;;;;;5067694;28;20404;-72
2022/07/09 09:52:52;;;;;;;2.30;1.60;;;26.40;14.80;;;;;;5058795;28;20900;-71
2022/07/09 09:55:18;;;;;;;2.90;1.60;;;25.90;15.30;;;;;;5063151;28;20757;-71
2022/07/09 09:57:45;;;;;;;3.00;2.00;;;25.80;14.90;;;;;;5069267;28;20835;-72
2022/07/09 10:00:11;;;;;;;4.50;1.60;;;26.00;15.90;;;;;;5072003;28;20405;-72
2022/07/09 10:02:42;;;;;;;2.40;1.40;;;26.60;14.50;;;;;;5056029;28;20792;-74
2022/07/09 10:05:07;;;;;;;3.00;1.60;;;26.80;13.20;;;;;;5039100;28;20405;-71
2022/07/09 10:07:33;;;;;;;1.40;1.10;;;26.80;13.30;;;;;;5075587;28;20756;-72
2022/07/09 10:09:59;;;;;;;2.30;1.35;;;26.80;12.50;;;;;;5057558;28;20382;-71
2022/07/09 10:12:30;;;;;;;1.33;1.20;;;26.80;12.60;;;;;;5042182;28;20429;-72
2022/07/09 10:14:56;;;;;;;2.10;1.10;;;26.80;12.50;;;;;;5062501;28;20397;-72
2022/07/09 10:17:24;;;;;;;2.47;1.17;;;26.90;12.70;;;;;;5075304;28;20410;-71
2022/07/09 10:19:57;;;;;;;2.30;1.10;;;26.50;12.80;;;;;;5060519;28;20393;-73
2022/07/09 10:22:37;;;;;;;2.30;1.20;;;26.40;13.30;;;;;;5037508;28;20450;-72
2022/07/09 10:25:07;;;;;;;1.30;1.00;;;26.50;12.60;;;;;;5059110;28;20468;-72
2022/07/09 10:27:46;;;;;;;2.67;1.30;;;26.30;12.40;;;;;;5071391;28;20810;-71
2022/07/09 10:30:29;;;;;;;1.20;1.02;;;26.30;12.80;;;;;;5062237;28;20404;-71
2022/07/09 10:33:06;;;;;;;2.00;1.40;;;25.90;14.50;;;;;;5074584;28;20521;-72
2022/07/09 10:35:39;;;;;;;1.27;1.17;;;25.50;14.60;;;;;;5057207;28;21038;-73
2022/07/09 10:38:05;;;;;;;2.20;1.35;;;25.80;14.70;;;;;;5059269;28;20464;-71
2022/07/09 10:40:41;;;;;;;2.50;1.30;;;25.90;14.10;;;;;;5068663;28;20896;-71
2022/07/09 10:43:06;;;;;;;1.60;1.30;;;26.20;14.10;;;;;;5053026;28;20399;-71
2022/07/09 10:45:34;;;;;;;2.90;1.45;;;26.30;13.10;;;;;;5062313;28;20459;-71
2022/07/09 10:48:02;;;;;;;1.40;1.20;;;26.50;13.80;;;;;;5067182;28;20480;-71
2022/07/09 10:50:30;;;;;;;6.82;1.60;;;26.50;13.70;;;;;;5036601;28;20418;-73
2022/07/09 10:52:56;;;;;;;4.10;1.70;;;26.60;13.50;;;;;;5059568;28;20393;-72
2022/07/09 10:55:24;;;;;;;3.20;1.73;;;26.50;13.80;;;;;;5060432;28;20389;-71
2022/07/09 10:57:50;;;;;;;2.40;1.47;;;26.10;14.40;;;;;;5060450;28;20870;-72
2022/07/09 11:00:22;;;;;;;2.90;1.50;;;26.10;14.20;;;;;;5068292;28;20484;-71
2022/07/09 11:03:02;;;;;;;2.88;1.48;;;26.30;13.00;;;;;;5064759;28;20393;-72
2022/07/09 11:05:29;;;;;;;2.15;1.38;;;26.40;12.80;;;;;;5051950;28;20404;-70
2022/07/09 11:08:00;;;;;;;2.50;1.80;;;26.30;13.30;;;;;;5064172;28;20391;-72
2022/07/09 11:10:27;;;;;;;2.00;1.60;;;26.10;14.30;;;;;;5056879;28;20470;-72
2022/07/09 11:12:54;;;;;;;2.80;1.77;;;26.30;13.80;;;;;;5044843;28;20395;-72
2022/07/09 11:15:21;;;;;;;2.37;1.97;;;26.90;12.80;;;;;;5071207;28;20438;-71
2022/07/09 11:18:01;;;;;;;1.88;1.65;;;27.10;12.70;;;;;;5062025;28;20921;-72
2022/07/09 11:20:28;;;;;;;4.13;1.70;;;27.10;12.60;;;;;;5045657;28;20391;-73
2022/07/09 11:22:57;;;;;;;3.13;2.03;;;27.20;12.40;;;;;;5072036;28;20399;-73
2022/07/09 11:25:26;;;;;;;2.55;1.75;;;27.40;12.60;;;;;;5072779;28;20761;-72
2022/07/09 11:27:54;;;;;;;5.63;2.00;;;27.70;11.80;;;;;;5042540;28;20397;-71
2022/07/09 11:30:20;;;;;;;1.95;1.80;;;27.90;10.70;;;;;;5053937;28;20401;-71
2022/07/09 11:32:46;;;;;;;3.50;2.20;;;27.50;11.20;;;;;;5049791;28;20407;-74
2022/07/09 11:35:12;;;;;;;2.10;1.90;;;26.90;12.40;;;;;;5062165;28;20392;-71
2022/07/09 11:37:44;;;;;;;3.70;2.40;;;26.40;13.80;;;;;;5062478;28;20417;-75
2022/07/09 11:40:18;;;;;;;4.63;2.80;;;26.30;14.00;;;;;;5077730;28;20494;-71
2022/07/09 11:42:45;;;;;;;3.25;2.30;;;26.40;13.80;;;;;;5081874;28;20380;-71
2022/07/09 11:45:11;;;;;;;4.78;2.78;;;26.40;14.20;;;;;;5078280;28;20368;-70
2022/07/09 11:47:40;;;;;;;4.78;3.00;;;26.40;14.40;;;;;;5070993;28;20400;-71
2022/07/09 11:50:14;;;;;;;3.33;2.90;;;26.40;15.00;;;;;;5063342;28;20391;-74
2022/07/09 11:52:45;;;;;;;3.17;2.88;;;26.40;14.60;;;;;;5056567;28;20501;-77
2022/07/09 11:55:13;;;;;;;3.72;2.85;;;26.40;14.50;;;;;;5034518;28;20834;-75
2022/07/09 11:57:39;;;;;;;2.95;2.70;;;26.30;14.90;;;;;;5051795;28;20391;-74
2022/07/09 12:00:20;;;;;;;3.50;3.20;;;25.70;16.20;;;;;;5055897;28;20397;-76
2022/07/09 12:02:45;;;;;;;6.38;3.45;;;25.40;16.60;;;;;;5053203;28;20389;-75
2022/07/09 12:05:11;;;;;;;6.00;3.37;;;25.10;17.00;;;;;;5054443;28;20388;-77
2022/07/09 12:07:37;;;;;;;5.33;3.63;;;25.00;17.80;;;;;;5052234;28;20939;-71
2022/07/09 12:10:08;;;;;;;6.05;4.10;;;25.10;17.80;;;;;;5051466;28;20386;-69
2022/07/09 12:12:35;;;;;;;6.07;3.40;;;25.40;17.50;;;;;;5050339;28;20428;-71
2022/07/09 12:15:02;;;;;;;5.78;4.07;;;25.60;17.50;;;;;;5052233;28;20916;-71
2022/07/09 12:17:29;;;;;;;5.95;4.10;;;25.90;16.40;;;;;;5054625;28;20381;-74
2022/07/09 12:19:56;;;;;;;5.63;4.93;;;26.10;16.50;;;;;;5050910;28;20386;-71
2022/07/09 12:22:25;;;;;;;7.50;4.78;;;26.10;16.20;;;;;;5050964;28;20433;-72
2022/07/09 12:24:54;;;;;;;7.90;5.47;;;25.90;16.70;;;;;;5071523;28;21057;-71
2022/07/09 12:27:20;;;;;;;9.52;6.07;;;25.70;17.50;;;;;;5070323;28;20425;-72
2022/07/09 12:29:46;;;;;;;6.47;5.80;;;25.80;17.30;;;;;;5053016;28;20888;-74
2022/07/09 12:32:12;;;;;;;6.70;6.10;;;25.70;18.10;;;;;;5070690;28;20733;-73